Time;durP1;ratioP1;P1;durP2;ratioP2;P2;SDS_P1;SDS_P2;PMS_P1;PMS_P2;Temp;Humidity;BMP_temperature;BMP_pressure;BME280_temperature;BME280_humidity;BME280_pressure;Samples;Min_cycle;Max_cycle;Signal;HPM_P1;HPM_P2
2023/12/23 00:01:15;;;;;;;18.00;3.42;;;;;;;7.06;100.00;100846.88;5068218;27;20122;-77
2023/12/23 00:03:41;;;;;;;21.75;3.58;;;;;;;7.06;100.00;100861.94;5101551;27;20640;-77
2023/12/23 00:06:06;;;;;;;20.63;3.08;;;;;;;7.08;100.00;100857.41;5088015;27;20204;-77
2023/12/23 00:08:38;;;;;;;15.23;3.35;;;;;;;7.16;100.00;100855.25;5093312;27;20075;-76
2023/12/23 00:11:07;;;;;;;19.35;4.07;;;;;;;7.14;100.00;100857.13;5080849;27;20048;-77
2023/12/23 00:13:32;;;;;;;13.98;2.85;;;;;;;7.17;100.00;100854.31;5101580;27;20046;-77
2023/12/23 00:15:59;;;;;;;19.33;4.18;;;;;;;7.21;100.00;100859.38;5105106;27;20036;-77
2023/12/23 00:18:32;;;;;;;21.67;3.65;;;;;;;7.19;100.00;100863.91;5097520;27;20039;-76
2023/12/23 00:20:58;;;;;;;22.20;3.42;;;;;;;7.23;100.00;100861.97;5102380;27;20058;-78
2023/12/23 00:23:24;;;;;;;18.02;3.72;;;;;;;7.29;100.00;100869.63;5104235;27;20442;-78
2023/12/23 00:25:49;;;;;;;30.85;3.78;;;;;;;7.27;100.00;100868.81;5095770;27;20279;-78
2023/12/23 00:28:15;;;;;;;20.73;3.22;;;;;;;7.29;100.00;100869.63;5075112;27;20656;-78
2023/12/23 00:30:40;;;;;;;19.63;3.65;;;;;;;7.26;100.00;100870.63;5101169;27;20466;-78
2023/12/23 00:33:06;;;;;;;20.65;4.60;;;;;;;7.31;100.00;100865.09;5101257;27;20113;-80
2023/12/23 00:35:41;;;;;;;13.70;3.08;;;;;;;7.29;100.00;100861.69;5098052;27;20031;-78
2023/12/23 00:38:07;;;;;;;30.33;3.08;;;;;;;7.29;100.00;100853.72;5104617;27;20339;-78
2023/12/23 00:40:32;;;;;;;20.38;3.63;;;;;;;7.19;100.00;100836.53;5097983;27;20133;-78
2023/12/23 00:42:58;;;;;;;21.40;3.50;;;;;;;7.12;100.00;100833.31;5104670;27;20066;-78
2023/12/23 00:45:25;;;;;;;20.50;2.85;;;;;;;7.14;100.00;100835.91;5106953;27;20561;-79
2023/12/23 00:47:51;;;;;;;16.65;3.28;;;;;;;7.12;100.00;100845.72;5101363;27;21051;-78
2023/12/23 00:50:16;;;;;;;16.42;2.83;;;;;;;7.14;100.00;100841.22;5103844;27;20096;-78
2023/12/23 00:52:42;;;;;;;21.95;3.45;;;;;;;7.22;100.00;100831.06;5105991;27;20785;-78
2023/12/23 00:55:08;;;;;;;15.07;2.80;;;;;;;7.18;100.00;100838.34;5097811;27;20200;-78
2023/12/23 00:57:33;;;;;;;19.83;3.08;;;;;;;7.26;100.00;100835.28;5104790;27;20431;-78
2023/12/23 00:59:59;;;;;;;19.58;2.63;;;;;;;7.25;100.00;100831.78;5087537;27;20486;-78
2023/12/23 01:02:24;;;;;;;18.02;3.40;;;;;;;7.32;100.00;100827.03;5082943;27;20436;-78
2023/12/23 01:04:50;;;;;;;21.38;3.83;;;;;;;7.38;100.00;100823.19;5071921;27;20160;-78
2023/12/23 01:07:16;;;;;;;23.65;3.58;;;;;;;7.34;100.00;100837.56;5086245;27;20036;-78
2023/12/23 01:09:41;;;;;;;16.73;3.35;;;;;;;7.40;100.00;100838.13;5102796;27;20035;-78
2023/12/23 01:12:07;;;;;;;23.33;3.60;;;;;;;7.36;100.00;100841.00;5081395;28;20047;-78
2023/12/23 01:14:32;;;;;;;23.33;3.75;;;;;;;7.27;100.00;100845.81;5105204;27;20047;-78
2023/12/23 01:16:58;;;;;;;25.27;3.83;;;;;;;7.30;100.00;100843.97;5089667;27;20565;-78
2023/12/23 01:19:24;;;;;;;19.80;4.13;;;;;;;7.31;100.00;100837.72;5090622;27;20043;-78
2023/12/23 01:21:51;;;;;;;17.25;4.15;;;;;;;7.27;100.00;100840.50;5070172;27;20976;-78
2023/12/23 01:24:17;;;;;;;20.95;4.05;;;;;;;7.35;100.00;100840.16;5106323;27;20089;-78
2023/12/23 01:26:43;;;;;;;21.33;3.40;;;;;;;7.37;100.00;100835.59;5093338;27;20077;-77
2023/12/23 01:29:08;;;;;;;22.77;3.72;;;;;;;7.36;100.00;100833.91;5082597;27;20023;-78
2023/12/23 01:31:34;;;;;;;11.43;3.15;;;;;;;7.40;100.00;100829.31;5113283;27;20040;-78
2023/12/23 01:34:06;;;;;;;22.75;4.28;;;;;;;7.41;100.00;100831.00;5088010;27;20020;-77
2023/12/23 01:36:41;;;;;;;20.77;4.20;;;;;;;7.38;100.00;100821.44;5095080;27;20044;-78
2023/12/23 01:39:06;;;;;;;22.08;4.10;;;;;;;7.33;100.00;100827.88;5105343;27;20093;-78
2023/12/23 01:41:42;;;;;;;22.50;4.25;;;;;;;7.34;100.00;100822.53;5092559;27;20113;-77
2023/12/23 01:44:08;;;;;;;15.75;3.55;;;;;;;7.31;100.00;100809.41;5085073;27;20039;-78
2023/12/23 01:46:34;;;;;;;24.70;4.97;;;;;;;7.23;100.00;100822.19;5100125;27;20040;-78
2023/12/23 01:49:07;;;;;;;27.17;5.13;;;;;;;7.22;100.00;100813.34;5090644;27;20036;-78
2023/12/23 01:51:33;;;;;;;27.80;4.90;;;;;;;7.26;100.00;100816.72;5091619;27;20126;-78
2023/12/23 01:54:05;;;;;;;27.23;4.50;;;;;;;7.16;100.00;100808.38;5098601;27;20038;-77
2023/12/23 01:56:35;;;;;;;14.80;3.95;;;;;;;7.22;100.00;100808.06;5100574;27;20040;-78
2023/12/23 01:59:07;;;;;;;28.65;5.10;;;;;;;7.30;100.00;100807.69;5085303;27;20224;-78
2023/12/23 02:01:37;;;;;;;28.10;3.42;;;;;;;7.32;100.00;100832.31;5095910;27;20936;-79
2023/12/23 02:04:06;;;;;;;21.00;3.78;;;;;;;7.30;100.00;100812.13;5094534;27;20032;-77
2023/12/23 02:06:37;;;;;;;27.58;3.10;;;;;;;7.31;100.00;100811.19;5093466;27;20779;-77
2023/12/23 02:09:06;;;;;;;21.52;3.53;;;;;;;7.35;100.00;100807.47;5113363;27;20638;-78
2023/12/23 02:11:36;;;;;;;21.40;3.45;;;;;;;7.33;100.00;100804.00;5087941;27;20040;-78
2023/12/23 02:14:32;;;;;;;31.60;4.88;;;;;;;7.38;100.00;100800.22;5080275;27;20111;-78
2023/12/23 02:16:58;;;;;;;20.38;2.92;;;;;;;7.37;100.00;100787.84;5106236;27;20703;-77
2023/12/23 02:19:24;;;;;;;18.00;3.83;;;;;;;7.46;100.00;100786.53;5092476;27;20036;-78
2023/12/23 02:21:50;;;;;;;16.95;3.38;;;;;;;7.43;100.00;100779.63;5113743;27;20139;-77
2023/12/23 02:24:15;;;;;;;17.13;4.28;;;;;;;7.42;100.00;100777.00;5107707;27;20066;-78
2023/12/23 02:26:43;;;;;;;21.25;3.10;;;;;;;7.46;100.00;100779.44;5120237;27;20110;-77
2023/12/23 02:29:10;;;;;;;23.00;4.07;;;;;;;7.39;100.00;100775.41;5110699;27;20032;-78
2023/12/23 02:31:36;;;;;;;17.83;3.75;;;;;;;7.42;100.00;100772.56;5108343;27;20074;-77
2023/12/23 02:34:08;;;;;;;18.83;3.55;;;;;;;7.41;100.00;100776.16;5098535;27;20536;-77
2023/12/23 02:36:34;;;;;;;;;;;;;;;7.44;100.00;100761.91;5096697;27;20038;-78
2023/12/23 02:39:02;;;;;;;23.63;3.33;;;;;;;7.44;100.00;100753.94;5112197;27;19923;-77
2023/12/23 02:41:29;;;;;;;22.85;3.75;;;;;;;7.36;100.00;100758.78;5094919;27;20134;-78
2023/12/23 02:43:56;;;;;;;27.13;3.70;;;;;;;7.40;100.00;100768.28;5100519;27;20043;-78
2023/12/23 02:46:21;;;;;;;18.30;3.40;;;;;;;7.43;100.00;100766.34;5087004;27;20042;-78
2023/12/23 02:48:50;;;;;;;27.17;3.80;;;;;;;7.44;100.00;100752.13;5107415;27;20043;-77
2023/12/23 02:51:15;;;;;;;16.73;3.17;;;;;;;7.37;100.00;100742.75;5110908;27;20824;-78
2023/12/23 02:53:41;;;;;;;22.13;3.75;;;;;;;7.32;100.00;100742.16;5110989;27;20043;-78
2023/12/23 02:56:09;;;;;;;13.23;2.97;;;;;;;7.34;100.00;100747.41;5090471;27;20528;-78
2023/12/23 02:58:36;;;;;;;15.25;3.20;;;;;;;7.43;100.00;100753.09;5098396;27;20038;-77
2023/12/23 03:01:19;;;;;;;20.67;3.67;;;;;;;7.44;100.00;100743.31;5099868;27;20043;-78
2023/12/23 03:03:44;;;;;;;12.77;3.70;;;;;;;7.48;100.00;100734.25;5090413;27;20119;-77
2023/12/23 03:06:14;;;;;;;24.30;4.50;;;;;;;7.42;100.00;100731.91;5108543;27;20035;-77
2023/12/23 03:08:40;;;;;;;23.00;4.20;;;;;;;7.43;100.00;100717.72;5095597;27;20024;-77
2023/12/23 03:11:09;;;;;;;23.50;4.97;;;;;;;7.42;100.00;100714.19;5087321;27;20034;-77
2023/12/23 03:13:37;;;;;;;22.33;4.30;;;;;;;7.44;100.00;100714.16;5091719;27;21546;-78
2023/12/23 03:16:35;;;;;;;19.70;4.10;;;;;;;7.42;100.00;100721.31;5099697;27;20069;-79
2023/12/23 03:19:05;;;;;;;24.33;4.88;;;;;;;7.44;100.00;100724.75;5050376;27;20135;-75
2023/12/23 03:21:31;;;;;;;15.18;5.63;;;;;;;7.43;100.00;100723.91;5101192;27;20065;-78
2023/12/23 03:24:06;;;;;;;23.10;6.93;;;;;;;7.44;100.00;100715.00;5095995;27;20534;-77
2023/12/23 03:26:34;;;;;;;26.75;8.55;;;;;;;7.44;100.00;100715.00;5103288;27;20028;-77
2023/12/23 03:29:05;;;;;;;35.67;9.83;;;;;;;7.53;100.00;100714.53;5104744;27;20031;-78
2023/12/23 03:31:37;;;;;;;27.17;10.70;;;;;;;7.60;100.00;100719.50;5108279;27;20453;-78
2023/12/23 03:34:02;;;;;;;31.33;11.50;;;;;;;7.74;100.00;100711.66;5091254;27;20076;-77
2023/12/23 03:36:29;;;;;;;24.77;11.70;;;;;;;7.75;100.00;100703.59;5097182;27;20036;-77
2023/12/23 03:38:55;;;;;;;24.17;11.38;;;;;;;7.84;100.00;100701.41;5097298;27;20082;-77
2023/12/23 03:41:21;;;;;;;35.78;12.70;;;;;;;7.88;100.00;100700.28;5082107;27;20040;-77
2023/12/23 03:43:50;;;;;;;34.63;12.52;;;;;;;7.96;100.00;100703.38;5093652;27;20056;-77
2023/12/23 03:46:22;;;;;;;28.45;13.63;;;;;;;8.00;100.00;100694.31;5098019;27;20039;-78
2023/12/23 03:48:48;;;;;;;28.38;11.38;;;;;;;8.03;100.00;100680.84;5102489;27;20069;-77
2023/12/23 03:51:14;;;;;;;33.38;12.32;;;;;;;8.14;100.00;100680.28;5075823;27;20119;-77
2023/12/23 03:53:42;;;;;;;31.88;10.63;;;;;;;8.18;100.00;100677.38;5092485;27;20110;-77
2023/12/23 03:56:07;;;;;;;30.15;9.40;;;;;;;8.24;100.00;100676.16;5106606;27;20086;-77
2023/12/23 03:58:33;;;;;;;25.92;9.50;;;;;;;8.30;100.00;100681.97;5109064;27;20039;-77
2023/12/23 04:00:58;;;;;;;30.20;9.02;;;;;;;8.36;100.00;100667.50;5091755;27;20042;-78
2023/12/23 04:03:24;;;;;;;32.33;10.18;;;;;;;8.37;100.00;100655.94;5090777;27;20074;-78
2023/12/23 04:05:49;;;;;;;34.72;9.38;;;;;;;8.37;100.00;100636.50;5090292;27;20474;-77
2023/12/23 04:08:18;;;;;;;25.10;7.53;;;;;;;8.39;100.00;100648.75;5104364;27;20410;-78
2023/12/23 04:10:49;;;;;;;25.15;6.63;;;;;;;8.44;100.00;100643.19;5109459;27;20054;-77
2023/12/23 04:13:18;;;;;;;27.58;6.53;;;;;;;8.48;100.00;100628.75;5102686;27;20024;-77
2023/12/23 04:15:43;;;;;;;23.35;5.80;;;;;;;8.47;100.00;100621.72;5102215;27;20028;-77
2023/12/23 04:18:09;;;;;;;20.02;5.20;;;;;;;8.50;100.00;100605.63;5095145;27;20036;-78
2023/12/23 04:20:38;;;;;;;22.33;5.13;;;;;;;8.50;100.00;100613.59;5109916;27;20108;-77
2023/12/23 04:23:04;;;;;;;28.50;5.00;;;;;;;8.55;100.00;100598.22;5103649;27;20040;-78
2023/12/23 04:25:31;;;;;;;19.63;4.85;;;;;;;8.54;100.00;100584.09;5090426;27;20027;-78
2023/12/23 04:27:59;;;;;;;32.40;5.55;;;;;;;8.61;100.00;100586.38;5092716;27;20120;-78
2023/12/23 04:30:26;;;;;;;22.02;4.63;;;;;;;8.57;100.00;100585.69;5107538;27;20115;-77
2023/12/23 04:32:52;;;;;;;24.98;5.25;;;;;;;8.66;100.00;100563.03;5112264;27;20339;-77
2023/12/23 04:35:17;;;;;;;27.33;4.57;;;;;;;8.64;100.00;100568.44;5113195;27;20061;-77
2023/12/23 04:37:44;;;;;;;19.38;4.72;;;;;;;8.64;100.00;100571.09;5094121;27;20044;-78
2023/12/23 04:40:11;;;;;;;23.10;4.80;;;;;;;8.68;100.00;100558.47;5090615;27;20101;-78
2023/12/23 04:42:36;;;;;;;14.60;4.30;;;;;;;8.70;100.00;100551.28;5110524;27;20077;-78
2023/12/23 04:45:06;;;;;;;16.00;4.35;;;;;;;8.76;100.00;100550.91;5078082;28;20497;-78
2023/12/23 04:47:38;;;;;;;18.10;4.20;;;;;;;8.74;100.00;100550.16;5094900;27;20110;-77
2023/12/23 04:50:07;;;;;;;24.83;4.10;;;;;;;8.73;100.00;100545.75;5095593;27;20046;-77
2023/12/23 04:52:33;;;;;;;24.30;4.30;;;;;;;8.69;100.00;100541.59;5105762;27;20119;-78
2023/12/23 04:54:59;;;;;;;17.05;4.45;;;;;;;8.65;100.00;100550.69;5108693;27;20042;-77
2023/12/23 04:57:27;;;;;;;21.63;6.55;;;;;;;8.65;100.00;100548.03;5104418;27;20090;-78
2023/12/23 04:59:53;;;;;;;27.33;5.32;;;;;;;8.63;100.00;100558.75;5105333;27;20101;-78
2023/12/23 05:02:19;;;;;;;23.30;5.40;;;;;;;8.64;100.00;100562.28;5072234;27;20032;-78
2023/12/23 05:04:46;;;;;;;28.45;5.07;;;;;;;8.57;100.00;100565.28;5101800;27;20804;-77
2023/12/23 05:07:14;;;;;;;24.40;5.50;;;;;;;8.60;100.00;100564.25;5093001;27;20107;-78
2023/12/23 05:09:40;;;;;;;23.15;5.68;;;;;;;8.65;100.00;100561.34;5089527;27;20031;-77
2023/12/23 05:12:08;;;;;;;23.02;5.05;;;;;;;8.72;100.00;100557.34;5095974;27;20035;-77
2023/12/23 05:14:36;;;;;;;19.85;5.25;;;;;;;8.73;100.00;100541.28;5105659;27;20038;-78
2023/12/23 05:17:09;;;;;;;16.80;4.20;;;;;;;8.78;100.00;100543.66;5101060;27;20048;-77
2023/12/23 05:19:34;;;;;;;17.25;4.10;;;;;;;8.76;100.00;100519.84;5108112;27;20081;-78
2023/12/23 05:22:11;;;;;;;23.95;4.75;;;;;;;8.79;100.00;100532.13;5087104;28;20042;-77
2023/12/23 05:24:37;;;;;;;21.23;4.20;;;;;;;8.79;100.00;100527.66;5102713;27;20584;-77
2023/12/23 05:27:14;;;;;;;24.70;4.28;;;;;;;8.81;100.00;100519.56;5111634;27;20028;-78
2023/12/23 05:29:40;;;;;;;24.58;5.93;;;;;;;8.76;100.00;100533.16;5093440;27;20059;-78
2023/12/23 05:32:08;;;;;;;20.15;4.68;;;;;;;8.75;100.00;100519.94;5103635;27;20036;-77
2023/12/23 05:34:33;;;;;;;19.35;4.47;;;;;;;8.80;100.00;100513.41;5105192;27;20483;-78
2023/12/23 05:36:59;;;;;;;23.63;4.45;;;;;;;8.81;100.00;100523.09;5076452;27;20043;-78
2023/12/23 05:39:25;;;;;;;17.13;3.88;;;;;;;8.86;100.00;100508.66;5089943;27;20031;-77
2023/12/23 05:41:51;;;;;;;21.65;4.05;;;;;;;8.85;100.00;100512.28;5107371;27;20036;-78
2023/12/23 05:44:16;;;;;;;17.80;4.20;;;;;;;8.86;100.00;100511.31;5101549;27;20147;-78
2023/12/23 05:46:45;;;;;;;19.73;4.45;;;;;;;8.88;100.00;100512.06;5074616;27;20062;-77
2023/12/23 05:49:10;;;;;;;19.50;4.18;;;;;;;8.86;100.00;100512.16;5103153;27;20034;-77
2023/12/23 05:51:38;;;;;;;30.35;4.80;;;;;;;8.82;100.00;100515.97;5111447;27;20039;-77
2023/12/23 05:54:06;;;;;;;20.60;4.30;;;;;;;8.82;100.00;100519.47;5089128;27;20039;-77
2023/12/23 05:56:36;;;;;;;22.65;5.25;;;;;;;8.81;100.00;100519.56;5097148;27;20127;-77
2023/12/23 05:59:09;;;;;;;20.60;4.65;;;;;;;8.86;100.00;100525.47;5103938;27;20032;-78
2023/12/23 06:01:38;;;;;;;20.45;4.07;;;;;;;8.79;100.00;100525.00;5098802;27;20044;-78
2023/12/23 06:04:06;;;;;;;27.13;5.38;;;;;;;8.78;100.00;100520.59;5101297;27;20032;-78
2023/12/23 06:06:38;;;;;;;26.70;6.05;;;;;;;8.75;100.00;100522.63;5100902;27;20452;-77
2023/12/23 06:09:06;;;;;;;25.75;5.53;;;;;;;8.74;100.00;100513.78;5105504;27;20036;-77
2023/12/23 06:11:41;;;;;;;13.90;4.05;;;;;;;8.80;100.00;100524.03;5095318;27;20706;-78
2023/12/23 06:14:07;;;;;;;32.67;5.78;;;;;;;8.74;100.00;100516.44;5105729;27;20110;-78
2023/12/23 06:16:42;;;;;;;20.05;5.28;;;;;;;8.81;100.00;100514.25;5104508;27;20036;-78
2023/12/23 06:19:07;;;;;;;32.00;5.85;;;;;;;8.84;100.00;100527.38;5092849;27;20494;-78
2023/12/23 06:21:33;;;;;;;17.45;5.13;;;;;;;8.79;100.00;100511.69;5106222;27;20040;-78
2023/12/23 06:23:59;;;;;;;26.77;5.07;;;;;;;8.75;100.00;100518.16;5074953;27;20458;-78
2023/12/23 06:26:28;;;;;;;22.33;4.32;;;;;;;8.77;100.00;100534.00;5108969;27;20035;-78
2023/12/23 06:28:53;;;;;;;22.77;5.30;;;;;;;8.78;100.00;100528.56;5090513;27;20051;-77
2023/12/23 06:31:21;;;;;;;22.52;4.65;;;;;;;8.81;100.00;100525.75;5106800;27;20051;-78
2023/12/23 06:33:50;;;;;;;21.35;5.45;;;;;;;8.89;100.00;100514.66;5099592;27;20042;-77
2023/12/23 06:36:16;;;;;;;17.80;5.10;;;;;;;8.91;100.00;100512.75;5106786;27;20487;-78
2023/12/23 06:38:44;;;;;;;17.25;5.18;;;;;;;8.93;100.00;100518.81;5085487;27;20040;-78
2023/12/23 06:41:11;;;;;;;18.50;6.38;;;;;;;8.92;100.00;100501.16;5090540;27;20043;-78
2023/12/23 06:43:36;;;;;;;22.65;5.25;;;;;;;8.94;100.00;100507.25;5087224;27;20039;-78
2023/12/23 06:46:11;;;;;;;34.80;5.93;;;;;;;8.97;100.00;100515.00;5073374;27;20290;-77
2023/12/23 06:48:37;;;;;;;20.02;5.35;;;;;;;8.90;100.00;100512.84;5084775;27;20044;-77
2023/12/23 06:51:07;;;;;;;23.00;5.65;;;;;;;8.89;100.00;100504.00;5108936;27;20071;-78
2023/12/23 06:53:41;;;;;;;25.02;5.22;;;;;;;8.97;100.00;100512.34;5099571;27;20566;-77
2023/12/23 06:56:08;;;;;;;27.35;5.95;;;;;;;8.90;100.00;100519.00;5087396;27;20821;-78
2023/12/23 06:58:33;;;;;;;27.48;5.05;;;;;;;8.95;100.00;100513.41;5090580;27;20032;-78
2023/12/23 07:01:09;;;;;;;17.45;4.82;;;;;;;8.90;100.00;100516.34;5118515;27;20558;-77
2023/12/23 07:03:44;;;;;;;24.95;5.70;;;;;;;8.89;100.00;100512.00;5111880;27;20135;-78
2023/12/23 07:06:13;;;;;;;20.90;5.38;;;;;;;8.93;100.00;100521.47;5100087;27;20047;-78
2023/12/23 07:08:39;;;;;;;27.92;5.63;;;;;;;8.79;100.00;100513.50;5074197;27;20040;-78
2023/12/23 07:11:11;;;;;;;23.90;5.97;;;;;;;8.86;100.00;100520.16;5089779;27;20082;-77
2023/12/23 07:13:37;;;;;;;21.42;4.90;;;;;;;8.91;100.00;100520.72;5113644;27;20101;-78
2023/12/23 07:16:06;;;;;;;20.33;5.40;;;;;;;8.89;100.00;100504.00;5113343;27;20034;-78
2023/12/23 07:18:37;;;;;;;22.50;5.60;;;;;;;8.93;100.00;100502.00;5101220;27;20036;-78
2023/12/23 07:21:06;;;;;;;22.17;5.65;;;;;;;8.97;100.00;100508.84;5088880;27;20101;-76
2023/12/23 07:23:37;;;;;;;27.52;5.18;;;;;;;8.99;100.00;100506.97;5107992;27;20048;-76
2023/12/23 07:26:07;;;;;;;25.13;5.13;;;;;;;8.99;100.00;100513.13;5106916;27;20127;-77
2023/12/23 07:28:33;;;;;;;26.25;5.05;;;;;;;8.95;100.00;100514.25;5101761;27;20032;-76
2023/12/23 07:30:59;;;;;;;27.58;6.20;;;;;;;8.99;100.00;100515.78;5104026;27;20040;-76
2023/12/23 07:33:24;;;;;;;23.33;4.43;;;;;;;9.04;100.00;100519.00;5109276;27;20538;-76
2023/12/23 07:35:50;;;;;;;30.40;5.13;;;;;;;9.08;100.00;100520.50;5107106;27;20033;-76
2023/12/23 07:38:15;;;;;;;20.52;5.75;;;;;;;9.01;100.00;100513.88;5107917;27;20735;-76
2023/12/23 07:40:41;;;;;;;28.70;5.85;;;;;;;9.08;100.00;100524.97;5108467;27;20143;-77
2023/12/23 07:43:07;;;;;;;22.27;4.60;;;;;;;9.05;100.00;100530.50;5097618;27;20332;-76
2023/12/23 07:45:33;;;;;;;21.08;5.03;;;;;;;9.06;100.00;100532.22;5101919;27;20105;-76
2023/12/23 07:47:58;;;;;;;18.92;4.35;;;;;;;9.17;100.00;100528.88;5105573;27;20047;-76
2023/12/23 07:50:24;;;;;;;17.10;4.82;;;;;;;9.19;100.00;100513.69;5105059;27;20089;-79
2023/12/23 07:52:49;;;;;;;14.93;4.57;;;;;;;9.22;100.00;100526.78;5107536;27;20062;-77
2023/12/23 07:55:18;;;;;;;26.02;4.85;;;;;;;9.27;100.00;100514.03;5091450;27;20047;-77
2023/12/23 07:57:45;;;;;;;26.02;4.65;;;;;;;9.27;100.00;100514.03;5089064;27;20663;-78
2023/12/23 08:00:11;;;;;;;17.05;4.53;;;;;;;9.28;100.00;100513.94;5084338;28;20032;-78
2023/12/23 08:02:37;;;;;;;18.15;4.50;;;;;;;9.37;100.00;100503.69;5080068;28;20039;-78
2023/12/23 08:05:06;;;;;;;25.27;4.22;;;;;;;9.37;100.00;100522.31;5090224;28;20483;-78
2023/12/23 08:07:40;;;;;;;19.20;4.22;;;;;;;9.27;100.00;100514.91;5083113;28;20032;-77
2023/12/23 08:10:09;;;;;;;17.23;4.00;;;;;;;9.29;100.00;100526.31;5073340;28;20063;-77
2023/12/23 08:12:37;;;;;;;20.30;3.97;;;;;;;9.31;100.00;100520.88;5083434;28;20909;-78
2023/12/23 08:15:03;;;;;;;18.30;4.95;;;;;;;9.38;100.00;100508.88;5081440;28;20040;-77
2023/12/23 08:17:37;;;;;;;19.63;5.00;;;;;;;9.41;100.00;100511.38;5073749;28;20523;-77
2023/12/23 08:20:02;;;;;;;21.50;4.68;;;;;;;9.48;100.00;100514.47;5081809;28;20060;-77
2023/12/23 08:22:29;;;;;;;17.65;4.53;;;;;;;9.52;100.00;100523.97;5085205;28;20080;-78
2023/12/23 08:24:55;;;;;;;16.60;4.20;;;;;;;9.58;100.00;100523.59;5087510;28;20043;-78
2023/12/23 08:27:20;;;;;;;23.33;4.55;;;;;;;9.51;100.00;100516.97;5086411;28;20918;-78
2023/12/23 08:29:49;;;;;;;18.17;4.65;;;;;;;9.53;100.00;100523.88;5079964;28;20089;-78
2023/12/23 08:32:15;;;;;;;19.02;4.47;;;;;;;9.53;100.00;100525.69;5076948;28;20072;-78
2023/12/23 08:34:40;;;;;;;22.30;5.40;;;;;;;9.49;100.00;100521.53;5083877;28;20051;-78
2023/12/23 08:37:06;;;;;;;18.45;4.65;;;;;;;9.48;100.00;100525.97;5084195;28;20478;-78
2023/12/23 08:39:41;;;;;;;18.10;3.70;;;;;;;9.53;100.00;100525.69;5081618;28;20035;-77
2023/12/23 08:42:06;;;;;;;16.73;4.25;;;;;;;9.58;100.00;100526.25;5084068;28;20142;-78
2023/12/23 08:44:35;;;;;;;13.02;3.30;;;;;;;9.50;100.00;100528.56;5084985;28;20872;-78
2023/12/23 08:47:06;;;;;;;20.48;4.47;;;;;;;9.56;100.00;100538.81;5065964;28;20048;-77
2023/12/23 08:49:41;;;;;;;20.52;3.97;;;;;;;9.58;100.00;100526.25;5086252;28;20063;-77
2023/12/23 08:52:08;;;;;;;28.63;5.07;;;;;;;9.58;100.00;100511.13;5085453;28;20119;-77
2023/12/23 08:54:33;;;;;;;21.17;3.92;;;;;;;9.54;100.00;100522.09;5083516;28;20028;-77
2023/12/23 08:56:59;;;;;;;15.35;3.78;;;;;;;9.59;100.00;100518.19;5087636;27;20048;-78
2023/12/23 08:59:24;;;;;;;19.42;3.72;;;;;;;9.60;100.00;100516.38;5101722;27;20036;-77
2023/12/23 09:01:50;;;;;;;15.80;3.67;;;;;;;9.59;100.00;100539.47;5104234;27;20035;-78
2023/12/23 09:04:18;;;;;;;17.88;3.42;;;;;;;9.64;100.00;100525.00;5097192;27;20032;-77
2023/12/23 09:06:48;;;;;;;15.07;3.60;;;;;;;9.66;100.00;100536.41;5106200;27;20052;-78
2023/12/23 09:09:14;;;;;;;18.02;4.55;;;;;;;9.74;100.00;100516.34;5090138;27;20028;-78
2023/12/23 09:11:44;;;;;;;16.50;3.33;;;;;;;9.76;100.00;100533.06;5087474;27;20036;-78
2023/12/23 09:14:12;;;;;;;21.85;3.97;;;;;;;9.74;100.00;100526.09;5087301;27;20032;-78
2023/12/23 09:16:38;;;;;;;19.25;4.57;;;;;;;9.76;100.00;100534.88;5074257;27;20067;-78
2023/12/23 09:19:07;;;;;;;14.57;3.20;;;;;;;9.90;100.00;100540.16;5087329;27;20054;-77
2023/12/23 09:21:38;;;;;;;15.73;3.88;;;;;;;9.93;100.00;100534.59;5108113;27;20028;-78
2023/12/23 09:24:04;;;;;;;16.00;3.25;;;;;;;9.82;100.00;100539.78;5103619;27;20056;-78
2023/12/23 09:26:33;;;;;;;13.02;3.40;;;;;;;9.76;100.00;100534.88;5107528;27;20035;-78
2023/12/23 09:28:58;;;;;;;13.02;4.22;;;;;;;9.81;100.00;100544.25;5112702;27;20039;-78
2023/12/23 09:31:24;;;;;;;28.50;4.15;;;;;;;9.84;100.00;100553.88;5107315;27;20036;-78
2023/12/23 09:33:49;;;;;;;15.65;3.97;;;;;;;9.83;100.00;100553.00;5102869;27;21171;-78
2023/12/23 09:36:14;;;;;;;16.10;3.42;;;;;;;9.80;100.00;100565.66;5106179;27;20027;-78
2023/12/23 09:38:40;;;;;;;15.68;3.65;;;;;;;9.85;100.00;100564.41;5096108;27;20109;-78
2023/12/23 09:41:08;;;;;;;13.40;3.45;;;;;;;9.69;100.00;100573.47;5090523;27;20031;-78
2023/12/23 09:43:34;;;;;;;17.80;4.55;;;;;;;9.78;100.00;100570.22;5110177;27;20081;-78
2023/12/23 09:46:08;;;;;;;11.27;2.53;;;;;;;9.69;100.00;100568.16;5110457;27;20032;-78
2023/12/23 09:48:34;;;;;;;15.65;3.63;;;;;;;9.73;100.00;100570.50;5061311;27;20949;-78
2023/12/23 09:51:07;;;;;;;11.18;2.92;;;;;;;9.84;100.00;100556.53;5087239;27;20779;-76
2023/12/23 09:53:43;;;;;;;15.50;3.38;;;;;;;9.90;100.00;100585.44;5104821;27;20038;-78
2023/12/23 09:56:09;;;;;;;20.58;3.80;;;;;;;9.85;100.00;100547.59;5091131;27;20051;-78
2023/12/23 09:58:38;;;;;;;12.75;3.83;;;;;;;9.84;100.00;100557.38;5110550;27;20788;-79
2023/12/23 10:01:06;;;;;;;25.85;5.07;;;;;;;9.98;100.00;100563.59;5099429;27;20063;-78
2023/12/23 10:03:37;;;;;;;21.60;3.58;;;;;;;9.97;100.00;100561.91;5067004;27;20955;-77
2023/12/23 10:06:07;;;;;;;16.45;3.42;;;;;;;9.91;100.00;100572.97;5104289;27;20040;-78
2023/12/23 10:08:42;;;;;;;13.27;3.88;;;;;;;9.92;100.00;100564.00;5093746;27;20036;-78
2023/12/23 10:11:07;;;;;;;15.55;3.50;;;;;;;9.91;100.00;100564.97;5106939;27;21080;-78
2023/12/23 10:13:35;;;;;;;14.80;3.97;;;;;;;9.93;100.00;100563.06;5094897;27;20036;-79
2023/12/23 10:16:11;;;;;;;19.45;3.60;;;;;;;9.93;100.00;100579.88;5090775;27;20074;-78
2023/12/23 10:18:40;;;;;;;15.80;2.95;;;;;;;9.94;100.00;100564.75;5107196;27;20036;-78
2023/12/23 10:21:06;;;;;;;12.38;3.30;;;;;;;10.01;100.00;100574.94;5110909;27;20119;-78
2023/12/23 10:23:41;;;;;;;15.73;4.07;;;;;;;9.97;100.00;100567.22;5109040;27;20105;-78
2023/12/23 10:26:06;;;;;;;23.27;3.95;;;;;;;10.03;100.00;100569.50;5098581;27;20039;-78
2023/12/23 10:28:42;;;;;;;14.93;3.90;;;;;;;9.98;100.00;100569.78;5109204;27;20070;-78
2023/12/23 10:31:11;;;;;;;16.35;3.58;;;;;;;10.00;100.00;100562.56;5100630;27;20034;-77
2023/12/23 10:33:41;;;;;;;15.63;4.10;;;;;;;10.06;100.00;100577.28;5105388;27;20039;-78
2023/12/23 10:36:11;;;;;;;18.75;4.38;;;;;;;10.02;100.00;100562.47;5110021;27;20498;-78
2023/12/23 10:38:49;;;;;;;13.38;4.03;;;;;;;10.03;100.00;100573.00;5108457;27;20040;-78
2023/12/23 10:41:23;;;;;;;12.20;3.00;;;;;;;9.96;100.00;100566.38;5102681;27;20039;-78
2023/12/23 10:43:51;;;;;;;15.15;3.83;;;;;;;10.08;100.00;100570.88;5110733;27;20028;-78
2023/12/23 10:46:16;;;;;;;15.20;4.13;;;;;;;10.06;100.00;100577.28;5080916;27;20159;-78
2023/12/23 10:48:43;;;;;;;23.98;4.03;;;;;;;10.08;100.00;100576.22;5107190;27;20065;-78
2023/12/23 10:51:11;;;;;;;22.73;4.35;;;;;;;9.95;100.00;100580.66;5110180;27;20545;-77
2023/12/23 10:53:39;;;;;;;19.23;3.40;;;;;;;9.98;100.00;100575.09;5082175;28;20044;-79
2023/12/23 10:56:09;;;;;;;17.35;3.03;;;;;;;10.03;100.00;100573.00;5107739;27;20048;-78
2023/12/23 10:58:42;;;;;;;22.05;5.03;;;;;;;10.04;100.00;100584.50;5103572;27;20092;-78
2023/12/23 11:01:12;;;;;;;21.05;4.63;;;;;;;10.02;100.00;100581.09;5110245;27;20039;-79
2023/12/23 11:03:39;;;;;;;21.30;4.30;;;;;;;10.02;100.00;100573.97;5105156;27;20114;-78
2023/12/23 11:06:10;;;;;;;19.58;3.78;;;;;;;10.05;100.00;100573.78;5085468;27;20032;-78
2023/12/23 11:08:37;;;;;;;21.15;4.60;;;;;;;10.04;100.00;100580.06;5106185;27;20613;-77
2023/12/23 11:11:10;;;;;;;15.65;4.10;;;;;;;10.16;100.00;100586.38;5106375;27;20028;-77
2023/12/23 11:13:38;;;;;;;17.00;4.35;;;;;;;10.07;100.00;100587.84;5109497;27;20028;-77
2023/12/23 11:16:10;;;;;;;8.75;2.85;;;;;;;10.15;100.00;100583.84;5107786;27;20036;-78
2023/12/23 11:18:42;;;;;;;21.75;5.28;;;;;;;10.09;100.00;100585.06;5108182;27;20109;-78
2023/12/23 11:21:17;;;;;;;;;;;;;;;10.06;100.00;100580.81;5085701;27;20046;-78